createdAt,value
2019-01-20T00:01:12.520Z,5.45
2019-01-20T00:03:41.106Z,5.08
2019-01-20T00:06:09.766Z,5.83
2019-01-20T00:08:38.364Z,5.80
2019-01-20T00:11:07.280Z,5.70
2019-01-20T00:13:35.885Z,6.37
2019-01-20T00:16:04.826Z,6.08
2019-01-20T00:18:33.753Z,5.95
2019-01-20T00:21:02.375Z,6.37
2019-01-20T00:23:30.971Z,5.70
2019-01-20T00:25:59.561Z,5.15
2019-01-20T00:28:28.152Z,6.15
2019-01-20T00:30:56.736Z,6.40
2019-01-20T00:33:25.328Z,5.92
2019-01-20T00:35:53.899Z,6.25
2019-01-20T00:38:22.495Z,5.53
2019-01-20T00:40:51.148Z,5.00
2019-01-20T00:43:19.836Z,6.20
2019-01-20T00:45:48.427Z,6.47
2019-01-20T00:50:56.300Z,5.80
2019-01-20T00:53:24.871Z,6.20
2019-01-20T00:55:53.469Z,5.42
2019-01-20T00:58:22.291Z,6.30
2019-01-20T01:00:51.692Z,5.97
2019-01-20T01:03:21.174Z,5.92
2019-01-20T01:05:49.746Z,5.92
2019-01-20T01:08:18.329Z,6.10
2019-01-20T01:10:46.968Z,5.92
2019-01-20T01:13:15.843Z,5.55
2019-01-20T01:15:44.517Z,5.65
2019-01-20T01:18:13.095Z,4.97
2019-01-20T01:20:41.913Z,6.05
2019-01-20T01:23:29.748Z,5.87
2019-01-20T01:28:46.298Z,5.50
2019-01-20T01:31:14.861Z,5.28
2019-01-20T01:33:43.426Z,5.75
2019-01-20T01:36:14.575Z,5.47
2019-01-20T01:39:02.382Z,6.03
2019-01-20T01:41:31.236Z,5.28
2019-01-20T01:44:00.159Z,5.35
2019-01-20T01:46:28.780Z,5.47
2019-01-20T01:48:57.612Z,5.10
2019-01-20T01:51:26.197Z,4.83
2019-01-20T01:53:54.995Z,5.10
2019-01-20T01:56:23.818Z,5.53
2019-01-20T01:58:52.930Z,6.00
2019-01-20T02:01:21.801Z,5.50
2019-01-20T02:03:50.387Z,6.05
2019-01-20T02:06:19.205Z,5.75
2019-01-20T02:08:48.021Z,5.72
2019-01-20T02:11:16.605Z,5.75
2019-01-20T02:13:45.194Z,4.55
2019-01-20T02:16:13.755Z,5.95
2019-01-20T02:21:16.888Z,5.08
2019-01-20T02:23:45.589Z,3.85
2019-01-20T02:26:14.156Z,4.30
2019-01-20T02:28:42.752Z,5.12
2019-01-20T02:31:11.322Z,5.20
2019-01-20T02:33:59.190Z,5.47
2019-01-20T02:36:27.765Z,6.00
2019-01-20T02:39:15.647Z,5.83
2019-01-20T02:41:44.462Z,5.67
2019-01-20T02:44:13.281Z,5.10
2019-01-20T02:46:41.850Z,4.62
2019-01-20T02:49:10.672Z,5.50
2019-01-20T02:51:39.464Z,4.80
2019-01-20T02:54:08.053Z,5.42
2019-01-20T02:56:36.650Z,5.70
2019-01-20T02:59:05.329Z,5.15
2019-01-20T03:01:33.939Z,5.75
2019-01-20T03:04:02.513Z,4.95
2019-01-20T03:06:31.093Z,5.87
2019-01-20T03:09:00.205Z,5.28
2019-01-20T03:11:28.787Z,4.83
2019-01-20T03:16:45.264Z,4.95
2019-01-20T03:19:13.852Z,5.35
2019-01-20T03:21:42.692Z,5.80
2019-01-20T03:24:11.264Z,5.37
2019-01-20T03:26:39.844Z,5.53
2019-01-20T03:29:08.528Z,5.17
2019-01-20T03:31:37.367Z,5.53
2019-01-20T03:34:06.002Z,5.70
2019-01-20T03:36:34.602Z,5.05
2019-01-20T03:41:52.693Z,5.42
2019-01-20T03:44:21.982Z,4.28
2019-01-20T03:46:50.552Z,5.60
2019-01-20T03:49:19.168Z,5.45
2019-01-20T03:51:47.738Z,5.20
2019-01-20T03:54:16.316Z,4.83
2019-01-20T03:56:45.204Z,4.92
2019-01-20T03:59:14.040Z,5.80
2019-01-20T04:01:42.615Z,5.85
2019-01-20T04:04:11.190Z,5.67
2019-01-20T04:06:39.999Z,5.15
2019-01-20T04:09:08.644Z,5.20
2019-01-20T04:11:37.222Z,5.10
2019-01-20T04:14:06.013Z,5.05
2019-01-20T04:16:34.852Z,4.80
2019-01-20T04:19:03.791Z,5.65
2019-01-20T04:21:32.377Z,5.55
2019-01-20T04:24:20.433Z,5.12
2019-01-20T04:29:23.119Z,4.75
2019-01-20T04:31:51.629Z,4.58
2019-01-20T04:34:20.433Z,4.70
2019-01-20T04:37:09.318Z,4.87
2019-01-20T04:39:37.889Z,4.95
2019-01-20T04:42:06.479Z,4.97
2019-01-20T04:44:35.319Z,5.80
2019-01-20T04:47:03.941Z,4.72
2019-01-20T04:49:32.528Z,5.17
2019-01-20T04:52:20.364Z,5.60
2019-01-20T04:54:48.955Z,5.15
2019-01-20T04:57:20.377Z,4.85
2019-01-20T04:59:49.059Z,4.35
2019-01-20T05:02:17.641Z,4.55
2019-01-20T05:04:47.213Z,4.65
2019-01-20T05:07:16.512Z,4.55
2019-01-20T05:09:45.374Z,5.42
2019-01-20T05:12:14.197Z,5.10
2019-01-20T05:14:43.056Z,5.28
2019-01-20T05:17:11.627Z,4.80
2019-01-20T05:19:40.213Z,5.50
2019-01-20T05:22:08.803Z,5.28
2019-01-20T05:24:37.387Z,5.90
2019-01-20T05:27:05.966Z,5.08
2019-01-20T05:29:34.586Z,5.15
2019-01-20T05:32:03.168Z,5.20
2019-01-20T05:34:31.779Z,4.80
2019-01-20T05:37:00.360Z,5.40
2019-01-20T05:39:28.967Z,5.22
2019-01-20T05:41:57.569Z,5.25
2019-01-20T05:44:26.185Z,4.80
2019-01-20T05:46:54.988Z,5.03
2019-01-20T05:49:23.588Z,4.72
2019-01-20T05:51:52.436Z,5.17
2019-01-20T05:54:21.014Z,5.78
2019-01-20T05:56:49.587Z,4.58
2019-01-20T05:59:18.191Z,5.37
2019-01-20T06:01:46.798Z,5.25
2019-01-20T06:04:15.402Z,5.42
2019-01-20T06:09:31.630Z,5.35
2019-01-20T06:12:00.219Z,6.20
2019-01-20T06:14:28.808Z,6.35
2019-01-20T06:16:57.389Z,5.33
2019-01-20T06:19:25.976Z,5.53
2019-01-20T06:21:54.840Z,5.85
2019-01-20T06:24:23.435Z,5.95
2019-01-20T06:26:52.009Z,6.17
2019-01-20T06:29:20.610Z,5.87
2019-01-20T06:32:08.438Z,6.20
2019-01-20T06:37:11.837Z,6.47
2019-01-20T06:39:40.437Z,6.05
2019-01-20T06:42:09.037Z,7.33
2019-01-20T06:44:37.629Z,6.10
2019-01-20T06:47:06.228Z,6.70
2019-01-20T06:49:34.817Z,6.10
2019-01-20T06:52:03.399Z,7.08
2019-01-20T06:54:32.234Z,6.83
2019-01-20T06:57:00.835Z,6.67
2019-01-20T06:59:29.454Z,6.62
2019-01-20T07:01:58.067Z,7.28
2019-01-20T07:04:26.648Z,6.25
2019-01-20T07:06:55.227Z,6.20
2019-01-20T07:09:23.845Z,6.45
2019-01-20T07:11:52.397Z,6.92
2019-01-20T07:14:21.072Z,6.50
2019-01-20T07:16:49.732Z,5.80
2019-01-20T07:19:18.369Z,6.28
2019-01-20T07:21:47.011Z,5.92
2019-01-20T07:24:15.846Z,7.20
2019-01-20T07:26:44.555Z,6.03
2019-01-20T07:29:13.857Z,6.62
2019-01-20T07:31:42.606Z,6.35
2019-01-20T07:34:11.210Z,6.53
2019-01-20T07:36:39.793Z,6.62
2019-01-20T07:39:08.808Z,5.87
2019-01-20T07:41:37.675Z,6.15
2019-01-20T07:44:06.883Z,6.03
2019-01-20T07:49:23.337Z,6.65
2019-01-20T07:51:52.174Z,5.90
2019-01-20T07:54:21.039Z,7.67
2019-01-20T07:56:50.107Z,5.80
2019-01-20T07:59:18.965Z,6.50
2019-01-20T08:01:47.558Z,7.42
2019-01-20T08:04:16.239Z,8.05
2019-01-20T08:06:45.057Z,9.05
2019-01-20T08:11:48.554Z,8.15
2019-01-20T08:14:17.445Z,6.65
2019-01-20T08:16:46.031Z,6.72
2019-01-20T08:19:14.671Z,7.75
2019-01-20T08:21:43.345Z,8.90
2019-01-20T08:24:12.052Z,7.03
2019-01-20T08:26:40.702Z,7.75
2019-01-20T08:29:28.555Z,7.12
2019-01-20T08:31:57.649Z,7.55
2019-01-20T08:34:26.622Z,7.30
2019-01-20T08:36:55.252Z,8.10
2019-01-20T08:39:23.838Z,8.68
2019-01-20T08:41:52.420Z,9.60
2019-01-20T08:47:22.611Z,8.23
2019-01-20T08:49:51.498Z,8.98
2019-01-20T08:52:20.078Z,8.18
2019-01-20T08:54:48.859Z,9.40
2019-01-20T08:57:17.463Z,9.10
2019-01-20T08:59:46.138Z,9.15
2019-01-20T09:02:14.745Z,9.05
2019-01-20T09:04:43.328Z,8.78
2019-01-20T09:07:11.977Z,9.75
2019-01-20T09:09:40.698Z,9.10
2019-01-20T09:12:09.392Z,10.18
2019-01-20T09:14:38.071Z,11.90
2019-01-20T09:19:41.222Z,10.93
2019-01-20T09:22:09.900Z,11.18
2019-01-20T09:24:38.517Z,9.50
2019-01-20T09:27:07.218Z,10.70
2019-01-20T09:29:35.947Z,10.58
2019-01-20T09:32:05.162Z,10.58
2019-01-20T09:34:34.135Z,11.63
2019-01-20T09:37:02.782Z,11.93
2019-01-20T09:39:31.493Z,11.70
2019-01-20T09:42:00.268Z,10.85
2019-01-20T09:44:29.153Z,10.40
2019-01-20T09:46:58.008Z,9.73
2019-01-20T09:49:26.806Z,8.97
2019-01-20T09:51:55.424Z,8.43
2019-01-20T09:54:24.362Z,8.23
2019-01-20T09:56:53.012Z,11.70
2019-01-20T09:59:21.674Z,7.20
2019-01-20T10:01:50.445Z,7.40
2019-01-20T10:04:19.156Z,8.33
2019-01-20T10:06:48.040Z,8.87
2019-01-20T10:09:16.603Z,8.40
2019-01-20T10:11:45.172Z,8.17
2019-01-20T10:14:13.780Z,8.10
2019-01-20T10:16:42.342Z,7.40
2019-01-20T10:19:11.291Z,8.57
2019-01-20T10:21:39.871Z,6.73
2019-01-20T10:24:08.470Z,7.33
2019-01-20T10:26:38.886Z,6.30
2019-01-20T10:29:08.193Z,6.40
2019-01-20T10:31:56.067Z,6.73
2019-01-20T10:34:24.795Z,6.83
2019-01-20T10:36:53.719Z,6.00
2019-01-20T10:39:22.301Z,6.90
2019-01-20T10:41:50.974Z,7.07
2019-01-20T10:44:19.635Z,7.30
2019-01-20T10:46:48.228Z,7.20
2019-01-20T10:49:16.797Z,6.53
2019-01-20T10:51:45.606Z,7.00
2019-01-20T10:54:14.210Z,5.97
2019-01-20T10:56:42.853Z,5.57
2019-01-20T10:59:11.437Z,6.90
2019-01-20T11:01:59.381Z,6.40
2019-01-20T11:04:47.349Z,5.70
2019-01-20T11:07:16.341Z,6.20
2019-01-20T11:09:46.629Z,6.47
2019-01-20T11:12:15.233Z,6.10
2019-01-20T11:14:43.809Z,5.90
2019-01-20T11:17:12.458Z,5.20
2019-01-20T11:19:41.188Z,5.70
2019-01-20T11:22:10.145Z,5.20
2019-01-20T11:24:38.860Z,5.55
2019-01-20T11:27:07.481Z,4.80
2019-01-20T11:29:36.138Z,5.10
2019-01-20T11:32:04.878Z,4.45
2019-01-20T11:34:33.514Z,4.90
2019-01-20T11:37:02.319Z,4.83
2019-01-20T11:39:31.332Z,4.37
2019-01-20T11:42:00.456Z,4.25
2019-01-20T11:44:29.086Z,4.72
2019-01-20T11:46:57.675Z,4.78
2019-01-20T11:49:26.251Z,4.35
2019-01-20T11:51:55.153Z,4.03
2019-01-20T11:54:23.778Z,3.42
2019-01-20T11:56:52.376Z,4.30
2019-01-20T11:59:20.987Z,4.55
2019-01-20T12:02:09.004Z,3.90
2019-01-20T12:04:37.611Z,4.30
2019-01-20T12:07:06.208Z,4.15
2019-01-20T12:09:34.784Z,4.58
2019-01-20T12:12:03.761Z,4.60
2019-01-20T12:14:32.643Z,4.40
2019-01-20T12:17:01.533Z,4.65
2019-01-20T12:19:30.150Z,4.25
2019-01-20T12:21:58.919Z,4.85
2019-01-20T12:24:27.598Z,4.90
2019-01-20T12:26:56.231Z,4.72
2019-01-20T12:29:25.690Z,3.80
2019-01-20T12:31:54.412Z,4.20
2019-01-20T12:34:23.732Z,4.17
2019-01-20T12:36:52.345Z,3.90
2019-01-20T12:39:20.957Z,3.70
2019-01-20T12:41:49.996Z,3.50
2019-01-20T12:44:18.714Z,3.77
2019-01-20T12:46:47.321Z,3.50
2019-01-20T12:49:15.974Z,4.40
2019-01-20T12:51:44.859Z,6.83
2019-01-20T12:54:13.488Z,3.80
2019-01-20T12:56:42.109Z,4.17
2019-01-20T12:59:10.868Z,4.40
2019-01-20T13:01:39.766Z,3.67
2019-01-20T13:04:08.577Z,3.23
2019-01-20T13:06:37.206Z,4.10
2019-01-20T13:09:28.237Z,3.83
2019-01-20T13:11:56.994Z,3.73
2019-01-20T13:14:44.897Z,3.97
2019-01-20T13:17:13.569Z,4.80
2019-01-20T13:19:42.606Z,4.10
2019-01-20T13:22:11.285Z,4.67
2019-01-20T13:24:39.986Z,4.90
2019-01-20T13:27:09.286Z,5.27
2019-01-20T13:29:38.045Z,4.93
2019-01-20T13:32:06.905Z,5.10
2019-01-20T13:34:35.600Z,4.70
2019-01-20T13:37:04.355Z,5.40
2019-01-20T13:39:33.195Z,4.23
2019-01-20T13:42:01.990Z,3.97
2019-01-20T13:44:30.849Z,4.93
2019-01-20T13:46:59.701Z,4.40
2019-01-20T13:49:28.347Z,4.43
2019-01-20T13:51:57.041Z,4.53
2019-01-20T13:54:25.795Z,4.37
2019-01-20T13:56:54.502Z,4.60
2019-01-20T13:59:23.229Z,4.13
2019-01-20T14:01:52.084Z,4.10
2019-01-20T14:04:20.913Z,4.90
2019-01-20T14:09:25.769Z,3.60
2019-01-20T14:11:54.672Z,3.37
2019-01-20T14:14:23.629Z,4.40
2019-01-20T14:16:52.738Z,4.25
2019-01-20T14:19:22.005Z,4.15
2019-01-20T14:21:52.045Z,4.08
2019-01-20T14:24:20.831Z,3.90
2019-01-20T14:26:49.615Z,4.37
2019-01-20T14:29:18.625Z,4.40
2019-01-20T14:31:47.393Z,4.30
2019-01-20T14:34:15.981Z,3.75
2019-01-20T14:36:44.883Z,3.90
2019-01-20T14:39:13.663Z,4.00
2019-01-20T14:41:42.579Z,4.47
2019-01-20T14:44:11.674Z,4.50
2019-01-20T14:46:40.385Z,4.70
2019-01-20T14:49:09.136Z,4.85
2019-01-20T14:51:37.828Z,4.60
2019-01-20T14:54:06.849Z,4.90
2019-01-20T14:56:35.793Z,4.62
2019-01-20T14:59:04.638Z,5.28
2019-01-20T15:01:33.452Z,4.42
2019-01-20T15:04:02.070Z,4.65
2019-01-20T15:06:30.913Z,5.17
2019-01-20T15:08:59.881Z,5.33
2019-01-20T15:11:29.505Z,5.25
2019-01-20T15:13:58.100Z,5.70
2019-01-20T15:16:26.684Z,5.00
2019-01-20T15:18:55.271Z,4.65
2019-01-20T15:21:24.148Z,5.42
2019-01-20T15:23:52.797Z,5.20
2019-01-20T15:26:21.494Z,5.40
2019-01-20T15:28:50.115Z,6.53
2019-01-20T15:31:18.726Z,7.17
2019-01-20T15:33:47.380Z,6.75
2019-01-20T15:36:15.991Z,5.65
2019-01-20T15:38:44.668Z,6.30
2019-01-20T15:41:13.347Z,5.87
2019-01-20T15:43:42.046Z,7.03
2019-01-20T15:46:10.986Z,6.67
2019-01-20T15:48:40.578Z,7.55
2019-01-20T15:51:09.192Z,6.95
2019-01-20T15:53:37.772Z,6.87
2019-01-20T15:56:06.412Z,6.78
2019-01-20T15:58:34.986Z,7.53
2019-01-20T16:01:22.869Z,6.50
2019-01-20T16:03:51.470Z,6.00
2019-01-20T16:06:20.022Z,6.35
2019-01-20T16:08:48.658Z,6.22
2019-01-20T16:11:17.196Z,6.72
2019-01-20T16:13:45.792Z,6.65
2019-01-20T16:16:14.351Z,6.75
2019-01-20T16:18:43.021Z,7.22
2019-01-20T16:21:11.937Z,7.97
2019-01-20T16:23:40.530Z,7.50
2019-01-20T16:26:09.350Z,7.20
2019-01-20T16:28:38.411Z,8.75
2019-01-20T16:31:07.051Z,8.65
2019-01-20T16:33:36.418Z,10.65
2019-01-20T16:36:05.380Z,10.85
2019-01-20T16:38:34.182Z,16.95
2019-01-20T16:41:03.108Z,8.90
2019-01-20T16:43:32.048Z,8.95
2019-01-20T16:46:00.693Z,7.75
2019-01-20T16:48:29.293Z,7.30
2019-01-20T16:50:57.910Z,6.83
2019-01-20T16:53:26.481Z,6.70
2019-01-20T16:55:55.093Z,5.80
2019-01-20T16:58:42.911Z,6.83
2019-01-20T17:01:11.517Z,6.97
2019-01-20T17:03:40.394Z,9.00
2019-01-20T17:06:09.017Z,11.38
2019-01-20T17:08:37.608Z,12.20
2019-01-20T17:11:06.229Z,11.50
2019-01-20T17:13:34.800Z,9.78
2019-01-20T17:16:03.393Z,6.45
2019-01-20T17:18:31.988Z,7.42
2019-01-20T17:21:00.714Z,6.33
2019-01-20T17:23:29.932Z,6.28
2019-01-20T17:26:03.388Z,6.80
2019-01-20T17:28:32.784Z,6.90
2019-01-20T17:31:01.489Z,6.03
2019-01-20T17:33:30.218Z,6.70
2019-01-20T17:35:58.831Z,6.85
2019-01-20T17:38:27.412Z,6.00
2019-01-20T17:40:56.079Z,6.55
2019-01-20T17:43:43.897Z,6.95
2019-01-20T17:46:31.799Z,6.17
2019-01-20T17:49:00.718Z,6.60
2019-01-20T17:51:29.332Z,6.72
2019-01-20T17:53:57.985Z,6.33
2019-01-20T17:56:26.529Z,5.47
2019-01-20T17:58:55.440Z,6.50
2019-01-20T18:01:24.063Z,7.00
2019-01-20T18:03:53.231Z,6.97
2019-01-20T18:06:21.801Z,6.85
2019-01-20T18:08:50.464Z,6.15
2019-01-20T18:14:06.744Z,6.62
2019-01-20T18:16:35.300Z,6.90
2019-01-20T18:19:04.142Z,7.33
2019-01-20T18:21:32.720Z,6.45
2019-01-20T18:24:01.534Z,5.95
2019-01-20T18:26:31.030Z,7.42
2019-01-20T18:28:59.650Z,6.50
2019-01-20T18:31:28.609Z,7.72
2019-01-20T18:33:57.282Z,7.95
2019-01-20T18:36:25.946Z,6.72
2019-01-20T18:38:54.650Z,6.22
2019-01-20T18:43:57.884Z,5.95
2019-01-20T18:46:26.816Z,6.17
2019-01-20T18:48:58.679Z,7.03
2019-01-20T18:51:27.267Z,6.35
2019-01-20T18:53:55.884Z,8.13
2019-01-20T18:56:24.475Z,7.05
2019-01-20T18:58:53.217Z,7.22
2019-01-20T19:01:22.367Z,7.33
2019-01-20T19:03:51.168Z,7.65
2019-01-20T19:06:20.928Z,7.33
2019-01-20T19:08:49.803Z,6.83
2019-01-20T19:11:18.443Z,7.67
2019-01-20T19:13:47.100Z,7.90
2019-01-20T19:16:15.789Z,7.67
2019-01-20T19:18:44.397Z,6.67
2019-01-20T19:21:13.349Z,7.05
2019-01-20T19:23:42.051Z,6.33
2019-01-20T19:26:10.956Z,7.45
2019-01-20T19:28:39.595Z,6.65
2019-01-20T19:34:15.417Z,7.37
2019-01-20T19:36:44.123Z,6.40
2019-01-20T19:39:12.785Z,6.78
2019-01-20T19:41:41.728Z,7.65
2019-01-20T19:44:10.299Z,6.15
2019-01-20T19:46:38.977Z,7.37
2019-01-20T19:49:07.595Z,8.63
2019-01-20T19:51:36.445Z,7.97
2019-01-20T19:54:05.325Z,8.63
2019-01-20T19:56:33.999Z,7.50
2019-01-20T19:59:02.730Z,7.45
2019-01-20T20:01:31.591Z,7.60
2019-01-20T20:04:00.199Z,8.43
2019-01-20T20:06:28.777Z,6.90
2019-01-20T20:12:04.883Z,6.95
2019-01-20T20:14:33.461Z,8.13
2019-01-20T20:17:02.075Z,7.45
2019-01-20T20:19:30.656Z,7.90
2019-01-20T20:21:59.310Z,7.85
2019-01-20T20:24:27.915Z,7.65
2019-01-20T20:26:56.836Z,7.62
2019-01-20T20:29:25.854Z,8.05
2019-01-20T20:31:54.473Z,8.20
2019-01-20T20:34:23.359Z,9.08
2019-01-20T20:36:52.041Z,10.48
2019-01-20T20:39:20.651Z,8.65
2019-01-20T20:41:49.477Z,8.43
2019-01-20T20:44:18.121Z,7.55
2019-01-20T20:46:46.700Z,6.12
2019-01-20T20:49:15.364Z,6.55
2019-01-20T20:51:44.182Z,7.45
2019-01-20T20:54:12.803Z,7.67
2019-01-20T20:56:41.377Z,7.10
2019-01-20T20:59:10.254Z,7.37
2019-01-20T21:01:39.089Z,7.97
2019-01-20T21:04:07.695Z,6.97
2019-01-20T21:06:36.282Z,6.90
2019-01-20T21:09:08.434Z,6.50
2019-01-20T21:11:37.034Z,6.62
2019-01-20T21:14:06.215Z,6.28
2019-01-20T21:16:38.041Z,6.72
2019-01-20T21:19:05.421Z,6.30
2019-01-20T21:21:34.002Z,6.78
2019-01-20T21:24:02.686Z,6.15
2019-01-20T21:26:31.266Z,6.03
2019-01-20T21:29:19.145Z,5.90
2019-01-20T21:31:47.786Z,5.95
2019-01-20T21:34:16.457Z,6.90
2019-01-20T21:36:45.069Z,6.58
2019-01-20T21:39:13.735Z,5.05
2019-01-20T21:41:42.315Z,6.05
2019-01-20T21:44:11.219Z,6.22
2019-01-20T21:46:45.277Z,5.90
2019-01-20T21:49:10.140Z,6.45
2019-01-20T21:51:38.741Z,6.95
2019-01-20T21:54:07.398Z,6.40
2019-01-20T21:56:35.991Z,5.80
2019-01-20T21:59:04.592Z,6.62
2019-01-20T22:01:33.415Z,6.00
2019-01-20T22:04:01.987Z,6.50
2019-01-20T22:06:30.579Z,6.55
2019-01-20T22:09:18.466Z,6.83
2019-01-20T22:11:47.104Z,7.05
2019-01-20T22:14:15.665Z,6.80
2019-01-20T22:16:44.500Z,6.55
2019-01-20T22:19:13.089Z,6.72
2019-01-20T22:27:03.682Z,7.67
2019-01-20T22:29:32.276Z,7.30
2019-01-20T22:34:48.499Z,6.67
2019-01-20T22:37:17.071Z,7.20
2019-01-20T22:40:04.976Z,7.22
2019-01-20T22:42:33.547Z,7.60
2019-01-20T22:45:02.124Z,7.87
2019-01-20T22:47:30.935Z,6.85
2019-01-20T22:53:08.234Z,6.78
2019-01-20T22:55:36.841Z,7.17
2019-01-20T22:58:45.263Z,6.85
2019-01-20T23:01:37.049Z,7.00
2019-01-20T23:04:05.709Z,7.90
2019-01-20T23:06:34.393Z,7.80
2019-01-20T23:09:06.767Z,8.73
2019-01-20T23:11:33.758Z,8.15
2019-01-20T23:14:02.327Z,8.25
2019-01-20T23:16:30.950Z,7.45
2019-01-20T23:18:59.525Z,7.30
2019-01-20T23:21:28.137Z,8.20
2019-01-20T23:26:31.287Z,8.45
2019-01-20T23:28:59.856Z,8.93
2019-01-20T23:31:28.442Z,6.60
2019-01-20T23:33:57.042Z,8.05
2019-01-20T23:36:25.609Z,7.55
2019-01-20T23:38:54.214Z,8.30
2019-01-20T23:41:22.772Z,8.90
2019-01-20T23:43:51.402Z,8.90
2019-01-20T23:46:20.197Z,9.45
2019-01-20T23:51:23.136Z,9.28
2019-01-20T23:53:51.717Z,8.63
2019-01-20T23:56:20.287Z,9.08
2019-01-20T23:58:49.102Z,8.38
